sensor_id;sensor_type;location;lat;lon;timestamp;P1;durP1;ratioP1;P2;durP2;ratioP2
30571;SDS011;17348;50.948;10.696;2024-03-07T00:01:28;45.17;;;18.73;;
30571;SDS011;17348;50.948;10.696;2024-03-07T00:04:30;47.97;;;19.13;;
30571;SDS011;17348;50.948;10.696;2024-03-07T00:07:32;40.20;;;17.97;;
30571;SDS011;17348;50.948;10.696;2024-03-07T00:10:36;40.93;;;19.17;;
30571;SDS011;17348;50.948;10.696;2024-03-07T00:13:39;41.43;;;18.33;;
30571;SDS011;17348;50.948;10.696;2024-03-07T00:16:41;40.93;;;17.03;;
30571;SDS011;17348;50.948;10.696;2024-03-07T00:19:45;43.30;;;18.10;;
30571;SDS011;17348;50.948;10.696;2024-03-07T00:22:48;42.57;;;17.10;;
30571;SDS011;17348;50.948;10.696;2024-03-07T00:25:52;37.53;;;18.27;;
30571;SDS011;17348;50.948;10.696;2024-03-07T00:28:54;38.73;;;18.30;;
30571;SDS011;17348;50.948;10.696;2024-03-07T00:31:56;38.87;;;17.90;;
30571;SDS011;17348;50.948;10.696;2024-03-07T00:34:59;40.83;;;17.77;;
30571;SDS011;17348;50.948;10.696;2024-03-07T00:38:03;44.10;;;18.43;;
30571;SDS011;17348;50.948;10.696;2024-03-07T00:41:07;50.23;;;20.10;;
30571;SDS011;17348;50.948;10.696;2024-03-07T00:44:10;45.63;;;20.20;;
30571;SDS011;17348;50.948;10.696;2024-03-07T00:47:12;46.07;;;19.10;;
30571;SDS011;17348;50.948;10.696;2024-03-07T00:50:15;46.40;;;19.57;;
30571;SDS011;17348;50.948;10.696;2024-03-07T00:53:17;42.87;;;18.70;;
30571;SDS011;17348;50.948;10.696;2024-03-07T00:56:21;45.17;;;19.37;;
30571;SDS011;17348;50.948;10.696;2024-03-07T00:59:24;44.97;;;19.40;;
30571;SDS011;17348;50.948;10.696;2024-03-07T01:02:26;47.53;;;20.40;;
30571;SDS011;17348;50.948;10.696;2024-03-07T01:05:29;44.57;;;18.97;;
30571;SDS011;17348;50.948;10.696;2024-03-07T01:08:31;49.13;;;18.60;;
30571;SDS011;17348;50.948;10.696;2024-03-07T01:11:37;47.00;;;19.27;;
30571;SDS011;17348;50.948;10.696;2024-03-07T01:14:39;42.20;;;19.70;;
30571;SDS011;17348;50.948;10.696;2024-03-07T01:17:41;43.33;;;19.53;;
30571;SDS011;17348;50.948;10.696;2024-03-07T01:20:45;48.00;;;20.90;;
30571;SDS011;17348;50.948;10.696;2024-03-07T01:23:47;44.97;;;19.53;;
30571;SDS011;17348;50.948;10.696;2024-03-07T01:26:53;44.40;;;19.10;;
30571;SDS011;17348;50.948;10.696;2024-03-07T01:29:56;43.47;;;18.37;;
30571;SDS011;17348;50.948;10.696;2024-03-07T01:32:58;41.47;;;19.23;;
30571;SDS011;17348;50.948;10.696;2024-03-07T01:36:00;43.87;;;20.40;;
30571;SDS011;17348;50.948;10.696;2024-03-07T01:39:03;49.37;;;20.33;;
30571;SDS011;17348;50.948;10.696;2024-03-07T01:42:07;43.47;;;18.67;;
30571;SDS011;17348;50.948;10.696;2024-03-07T01:45:09;48.30;;;19.23;;
30571;SDS011;17348;50.948;10.696;2024-03-07T01:48:12;50.63;;;19.63;;
30571;SDS011;17348;50.948;10.696;2024-03-07T01:51:21;38.60;;;17.90;;
30571;SDS011;17348;50.948;10.696;2024-03-07T01:54:23;43.67;;;19.43;;
30571;SDS011;17348;50.948;10.696;2024-03-07T01:57:28;45.27;;;18.50;;
30571;SDS011;17348;50.948;10.696;2024-03-07T02:00:30;42.53;;;19.53;;
30571;SDS011;17348;50.948;10.696;2024-03-07T02:03:33;44.87;;;18.93;;
30571;SDS011;17348;50.948;10.696;2024-03-07T02:06:37;39.80;;;17.97;;
30571;SDS011;17348;50.948;10.696;2024-03-07T02:09:39;50.13;;;19.13;;
30571;SDS011;17348;50.948;10.696;2024-03-07T02:12:43;40.87;;;18.27;;
30571;SDS011;17348;50.948;10.696;2024-03-07T02:15:46;42.87;;;19.33;;
30571;SDS011;17348;50.948;10.696;2024-03-07T02:18:48;45.23;;;18.60;;
30571;SDS011;17348;50.948;10.696;2024-03-07T02:21:53;45.77;;;20.50;;
30571;SDS011;17348;50.948;10.696;2024-03-07T02:24:55;43.37;;;18.93;;
30571;SDS011;17348;50.948;10.696;2024-03-07T02:27:58;45.23;;;19.33;;
30571;SDS011;17348;50.948;10.696;2024-03-07T02:31:00;40.23;;;18.90;;
30571;SDS011;17348;50.948;10.696;2024-03-07T02:34:03;40.57;;;17.50;;
30571;SDS011;17348;50.948;10.696;2024-03-07T02:37:07;45.53;;;19.70;;
30571;SDS011;17348;50.948;10.696;2024-03-07T02:40:10;39.70;;;18.70;;
30571;SDS011;17348;50.948;10.696;2024-03-07T02:43:13;45.93;;;20.23;;
30571;SDS011;17348;50.948;10.696;2024-03-07T02:46:16;40.07;;;18.37;;
30571;SDS011;17348;50.948;10.696;2024-03-07T02:49:18;44.60;;;19.63;;
30571;SDS011;17348;50.948;10.696;2024-03-07T02:52:23;42.30;;;19.73;;
30571;SDS011;17348;50.948;10.696;2024-03-07T02:55:25;38.67;;;18.40;;
30571;SDS011;17348;50.948;10.696;2024-03-07T02:58:27;40.93;;;19.17;;
30571;SDS011;17348;50.948;10.696;2024-03-07T03:01:30;45.80;;;20.10;;
30571;SDS011;17348;50.948;10.696;2024-03-07T03:04:32;45.13;;;20.33;;
30571;SDS011;17348;50.948;10.696;2024-03-07T03:07:36;44.30;;;19.73;;
30571;SDS011;17348;50.948;10.696;2024-03-07T03:10:38;39.17;;;17.97;;
30571;SDS011;17348;50.948;10.696;2024-03-07T03:13:41;43.50;;;18.17;;
30571;SDS011;17348;50.948;10.696;2024-03-07T03:16:44;43.83;;;18.37;;
30571;SDS011;17348;50.948;10.696;2024-03-07T03:19:46;45.60;;;19.37;;
30571;SDS011;17348;50.948;10.696;2024-03-07T03:22:54;43.10;;;19.60;;
30571;SDS011;17348;50.948;10.696;2024-03-07T03:25:57;37.13;;;18.03;;
30571;SDS011;17348;50.948;10.696;2024-03-07T03:29:00;41.87;;;19.07;;
30571;SDS011;17348;50.948;10.696;2024-03-07T03:32:03;38.97;;;17.90;;
30571;SDS011;17348;50.948;10.696;2024-03-07T03:35:06;43.60;;;18.90;;
30571;SDS011;17348;50.948;10.696;2024-03-07T03:38:15;44.03;;;19.53;;
30571;SDS011;17348;50.948;10.696;2024-03-07T03:41:18;36.57;;;16.90;;
30571;SDS011;17348;50.948;10.696;2024-03-07T03:44:21;46.70;;;18.87;;
30571;SDS011;17348;50.948;10.696;2024-03-07T03:47:23;43.40;;;19.00;;
30571;SDS011;17348;50.948;10.696;2024-03-07T03:50:25;45.60;;;18.73;;
30571;SDS011;17348;50.948;10.696;2024-03-07T03:53:30;45.00;;;17.13;;
30571;SDS011;17348;50.948;10.696;2024-03-07T03:56:32;52.33;;;19.77;;
30571;SDS011;17348;50.948;10.696;2024-03-07T03:59:35;49.87;;;19.77;;
30571;SDS011;17348;50.948;10.696;2024-03-07T04:02:41;46.53;;;18.60;;
30571;SDS011;17348;50.948;10.696;2024-03-07T04:05:44;46.23;;;18.60;;
30571;SDS011;17348;50.948;10.696;2024-03-07T04:08:48;48.13;;;19.53;;
30571;SDS011;17348;50.948;10.696;2024-03-07T04:11:52;46.93;;;20.43;;
30571;SDS011;17348;50.948;10.696;2024-03-07T04:14:55;48.33;;;17.57;;
30571;SDS011;17348;50.948;10.696;2024-03-07T04:17:57;44.50;;;19.67;;
30571;SDS011;17348;50.948;10.696;2024-03-07T04:20:59;45.37;;;19.30;;
30571;SDS011;17348;50.948;10.696;2024-03-07T04:24:03;48.63;;;19.47;;
30571;SDS011;17348;50.948;10.696;2024-03-07T04:27:06;49.13;;;19.33;;
30571;SDS011;17348;50.948;10.696;2024-03-07T04:30:08;46.67;;;18.97;;
30571;SDS011;17348;50.948;10.696;2024-03-07T04:33:13;48.27;;;19.67;;
30571;SDS011;17348;50.948;10.696;2024-03-07T04:36:15;48.17;;;19.80;;
30571;SDS011;17348;50.948;10.696;2024-03-07T04:39:18;44.87;;;19.60;;
30571;SDS011;17348;50.948;10.696;2024-03-07T04:42:33;44.30;;;18.70;;
30571;SDS011;17348;50.948;10.696;2024-03-07T04:45:35;49.63;;;19.20;;
30571;SDS011;17348;50.948;10.696;2024-03-07T04:48:38;45.33;;;19.37;;
30571;SDS011;17348;50.948;10.696;2024-03-07T04:51:40;56.80;;;21.00;;
30571;SDS011;17348;50.948;10.696;2024-03-07T04:54:44;51.20;;;20.53;;
30571;SDS011;17348;50.948;10.696;2024-03-07T04:57:46;52.97;;;22.10;;
30571;SDS011;17348;50.948;10.696;2024-03-07T05:00:49;48.90;;;19.30;;
30571;SDS011;17348;50.948;10.696;2024-03-07T05:03:51;51.87;;;20.10;;
30571;SDS011;17348;50.948;10.696;2024-03-07T05:06:53;60.03;;;20.80;;
30571;SDS011;17348;50.948;10.696;2024-03-07T05:09:57;52.60;;;21.73;;
30571;SDS011;17348;50.948;10.696;2024-03-07T05:12:59;51.23;;;19.80;;
30571;SDS011;17348;50.948;10.696;2024-03-07T05:16:02;46.13;;;21.30;;
30571;SDS011;17348;50.948;10.696;2024-03-07T05:19:04;49.13;;;20.80;;
30571;SDS011;17348;50.948;10.696;2024-03-07T05:22:08;69.13;;;22.43;;
30571;SDS011;17348;50.948;10.696;2024-03-07T05:25:16;55.40;;;21.67;;
30571;SDS011;17348;50.948;10.696;2024-03-07T05:28:19;47.60;;;19.93;;
30571;SDS011;17348;50.948;10.696;2024-03-07T05:31:21;61.00;;;22.40;;
30571;SDS011;17348;50.948;10.696;2024-03-07T05:34:23;60.73;;;21.87;;
30571;SDS011;17348;50.948;10.696;2024-03-07T05:37:28;63.03;;;23.97;;
30571;SDS011;17348;50.948;10.696;2024-03-07T05:40:33;58.03;;;23.70;;
30571;SDS011;17348;50.948;10.696;2024-03-07T05:43:36;53.63;;;22.63;;
30571;SDS011;17348;50.948;10.696;2024-03-07T05:46:38;65.60;;;25.13;;
30571;SDS011;17348;50.948;10.696;2024-03-07T05:49:46;61.57;;;22.70;;
30571;SDS011;17348;50.948;10.696;2024-03-07T05:52:49;58.70;;;24.10;;
30571;SDS011;17348;50.948;10.696;2024-03-07T05:55:53;60.80;;;23.30;;
30571;SDS011;17348;50.948;10.696;2024-03-07T05:58:55;72.27;;;24.67;;
30571;SDS011;17348;50.948;10.696;2024-03-07T06:01:57;60.43;;;24.50;;
30571;SDS011;17348;50.948;10.696;2024-03-07T06:05:00;59.27;;;23.33;;
30571;SDS011;17348;50.948;10.696;2024-03-07T06:08:04;72.53;;;26.90;;
30571;SDS011;17348;50.948;10.696;2024-03-07T06:11:09;71.63;;;26.30;;
30571;SDS011;17348;50.948;10.696;2024-03-07T06:14:11;80.80;;;25.93;;
30571;SDS011;17348;50.948;10.696;2024-03-07T06:17:14;67.47;;;26.37;;
30571;SDS011;17348;50.948;10.696;2024-03-07T06:20:18;87.77;;;25.70;;
30571;SDS011;17348;50.948;10.696;2024-03-07T06:23:25;61.83;;;24.53;;
30571;SDS011;17348;50.948;10.696;2024-03-07T06:26:31;61.87;;;25.47;;
30571;SDS011;17348;50.948;10.696;2024-03-07T06:29:46;62.17;;;24.07;;
30571;SDS011;17348;50.948;10.696;2024-03-07T06:32:51;77.07;;;27.10;;
30571;SDS011;17348;50.948;10.696;2024-03-07T06:35:53;74.20;;;26.37;;
30571;SDS011;17348;50.948;10.696;2024-03-07T06:38:56;82.67;;;28.87;;
30571;SDS011;17348;50.948;10.696;2024-03-07T06:42:00;69.30;;;27.03;;
30571;SDS011;17348;50.948;10.696;2024-03-07T06:45:02;69.60;;;25.90;;
30571;SDS011;17348;50.948;10.696;2024-03-07T06:48:05;75.60;;;27.37;;
30571;SDS011;17348;50.948;10.696;2024-03-07T06:51:08;66.97;;;25.13;;
30571;SDS011;17348;50.948;10.696;2024-03-07T06:54:12;69.57;;;25.03;;
30571;SDS011;17348;50.948;10.696;2024-03-07T06:57:17;75.57;;;25.57;;
30571;SDS011;17348;50.948;10.696;2024-03-07T07:00:20;60.23;;;24.10;;
30571;SDS011;17348;50.948;10.696;2024-03-07T07:03:22;65.93;;;24.57;;
30571;SDS011;17348;50.948;10.696;2024-03-07T07:06:24;65.90;;;25.03;;
30571;SDS011;17348;50.948;10.696;2024-03-07T07:09:28;60.70;;;24.13;;
30571;SDS011;17348;50.948;10.696;2024-03-07T07:12:35;46.20;;;20.07;;
30571;SDS011;17348;50.948;10.696;2024-03-07T07:15:38;51.40;;;20.17;;
30571;SDS011;17348;50.948;10.696;2024-03-07T07:18:40;52.67;;;21.03;;
30571;SDS011;17348;50.948;10.696;2024-03-07T07:21:43;48.57;;;20.60;;
30571;SDS011;17348;50.948;10.696;2024-03-07T07:24:47;47.57;;;19.77;;
30571;SDS011;17348;50.948;10.696;2024-03-07T07:27:51;50.00;;;19.37;;
30571;SDS011;17348;50.948;10.696;2024-03-07T07:30:53;53.13;;;21.77;;
30571;SDS011;17348;50.948;10.696;2024-03-07T07:33:56;46.93;;;20.20;;
30571;SDS011;17348;50.948;10.696;2024-03-07T07:36:58;46.40;;;19.93;;
30571;SDS011;17348;50.948;10.696;2024-03-07T07:40:00;41.77;;;18.17;;
30571;SDS011;17348;50.948;10.696;2024-03-07T07:43:06;42.03;;;19.43;;
30571;SDS011;17348;50.948;10.696;2024-03-07T07:46:08;42.30;;;19.03;;
30571;SDS011;17348;50.948;10.696;2024-03-07T07:49:10;58.03;;;20.43;;
30571;SDS011;17348;50.948;10.696;2024-03-07T07:52:13;43.77;;;19.53;;
30571;SDS011;17348;50.948;10.696;2024-03-07T07:55:17;79.40;;;19.93;;
30571;SDS011;17348;50.948;10.696;2024-03-07T07:58:21;69.23;;;20.67;;
30571;SDS011;17348;50.948;10.696;2024-03-07T08:01:23;66.97;;;20.73;;
30571;SDS011;17348;50.948;10.696;2024-03-07T08:04:26;67.17;;;21.40;;
30571;SDS011;17348;50.948;10.696;2024-03-07T08:07:28;68.50;;;21.33;;
30571;SDS011;17348;50.948;10.696;2024-03-07T08:10:30;60.13;;;23.10;;
30571;SDS011;17348;50.948;10.696;2024-03-07T08:13:35;67.03;;;22.83;;
30571;SDS011;17348;50.948;10.696;2024-03-07T08:16:37;66.13;;;26.40;;
30571;SDS011;17348;50.948;10.696;2024-03-07T08:19:40;67.50;;;23.37;;
30571;SDS011;17348;50.948;10.696;2024-03-07T08:22:44;71.03;;;23.40;;
30571;SDS011;17348;50.948;10.696;2024-03-07T08:25:46;58.83;;;23.27;;
30571;SDS011;17348;50.948;10.696;2024-03-07T08:28:50;66.53;;;25.23;;
30571;SDS011;17348;50.948;10.696;2024-03-07T08:31:52;72.20;;;25.40;;
30571;SDS011;17348;50.948;10.696;2024-03-07T08:34:55;81.63;;;25.63;;
30571;SDS011;17348;50.948;10.696;2024-03-07T08:37:57;80.50;;;25.80;;
30571;SDS011;17348;50.948;10.696;2024-03-07T08:40:59;64.40;;;24.93;;
30571;SDS011;17348;50.948;10.696;2024-03-07T08:44:03;64.23;;;24.80;;
30571;SDS011;17348;50.948;10.696;2024-03-07T08:47:05;74.03;;;26.37;;
30571;SDS011;17348;50.948;10.696;2024-03-07T08:50:08;81.37;;;27.50;;
30571;SDS011;17348;50.948;10.696;2024-03-07T08:53:11;73.70;;;27.20;;
30571;SDS011;17348;50.948;10.696;2024-03-07T08:56:13;69.47;;;26.40;;
30571;SDS011;17348;50.948;10.696;2024-03-07T08:59:17;78.13;;;27.07;;
30571;SDS011;17348;50.948;10.696;2024-03-07T09:02:19;75.23;;;25.17;;
30571;SDS011;17348;50.948;10.696;2024-03-07T09:05:21;72.33;;;26.57;;
30571;SDS011;17348;50.948;10.696;2024-03-07T09:08:24;71.40;;;27.30;;
30571;SDS011;17348;50.948;10.696;2024-03-07T09:11:27;74.03;;;26.33;;
30571;SDS011;17348;50.948;10.696;2024-03-07T09:14:30;72.67;;;27.47;;
30571;SDS011;17348;50.948;10.696;2024-03-07T09:17:33;66.23;;;26.50;;
30571;SDS011;17348;50.948;10.696;2024-03-07T09:20:35;64.67;;;28.10;;
30571;SDS011;17348;50.948;10.696;2024-03-07T09:23:38;67.43;;;26.37;;
30571;SDS011;17348;50.948;10.696;2024-03-07T09:26:40;66.30;;;25.50;;
30571;SDS011;17348;50.948;10.696;2024-03-07T09:29:44;79.20;;;26.90;;
30571;SDS011;17348;50.948;10.696;2024-03-07T09:32:55;76.63;;;25.73;;
30571;SDS011;17348;50.948;10.696;2024-03-07T09:35:58;64.87;;;25.20;;
30571;SDS011;17348;50.948;10.696;2024-03-07T09:39:00;65.07;;;25.27;;
30571;SDS011;17348;50.948;10.696;2024-03-07T09:42:03;70.33;;;26.40;;
30571;SDS011;17348;50.948;10.696;2024-03-07T09:45:08;49.83;;;20.53;;
30571;SDS011;17348;50.948;10.696;2024-03-07T09:48:17;58.30;;;22.33;;
30571;SDS011;17348;50.948;10.696;2024-03-07T09:51:20;53.67;;;20.73;;
30571;SDS011;17348;50.948;10.696;2024-03-07T09:54:23;45.53;;;19.80;;
30571;SDS011;17348;50.948;10.696;2024-03-07T09:57:26;47.80;;;19.57;;
30571;SDS011;17348;50.948;10.696;2024-03-07T10:00:29;40.50;;;17.77;;
30571;SDS011;17348;50.948;10.696;2024-03-07T10:03:35;37.33;;;18.23;;
30571;SDS011;17348;50.948;10.696;2024-03-07T10:06:39;39.83;;;16.67;;
30571;SDS011;17348;50.948;10.696;2024-03-07T10:09:42;39.90;;;17.33;;
30571;SDS011;17348;50.948;10.696;2024-03-07T10:12:45;40.93;;;17.37;;
30571;SDS011;17348;50.948;10.696;2024-03-07T10:15:47;41.27;;;16.57;;
30571;SDS011;17348;50.948;10.696;2024-03-07T10:18:51;36.93;;;17.03;;
30571;SDS011;17348;50.948;10.696;2024-03-07T10:21:54;38.30;;;16.80;;
30571;SDS011;17348;50.948;10.696;2024-03-07T10:25:00;36.30;;;16.77;;
30571;SDS011;17348;50.948;10.696;2024-03-07T10:28:02;32.73;;;15.57;;
30571;SDS011;17348;50.948;10.696;2024-03-07T10:31:06;34.07;;;16.00;;
30571;SDS011;17348;50.948;10.696;2024-03-07T10:34:16;30.00;;;14.60;;
30571;SDS011;17348;50.948;10.696;2024-03-07T10:37:19;30.93;;;13.90;;
30571;SDS011;17348;50.948;10.696;2024-03-07T10:40:22;28.40;;;13.77;;
30571;SDS011;17348;50.948;10.696;2024-03-07T10:43:28;34.77;;;11.90;;
30571;SDS011;17348;50.948;10.696;2024-03-07T10:46:33;22.53;;;12.73;;
30571;SDS011;17348;50.948;10.696;2024-03-07T10:49:39;29.37;;;14.30;;
30571;SDS011;17348;50.948;10.696;2024-03-07T10:52:58;26.90;;;12.33;;
30571;SDS011;17348;50.948;10.696;2024-03-07T10:56:14;25.57;;;13.67;;
30571;SDS011;17348;50.948;10.696;2024-03-07T10:59:25;32.23;;;12.87;;
30571;SDS011;17348;50.948;10.696;2024-03-07T11:02:30;24.30;;;11.70;;
30571;SDS011;17348;50.948;10.696;2024-03-07T11:05:41;25.10;;;11.97;;
30571;SDS011;17348;50.948;10.696;2024-03-07T11:08:45;29.30;;;12.37;;
30571;SDS011;17348;50.948;10.696;2024-03-07T11:11:48;30.87;;;12.57;;
30571;SDS011;17348;50.948;10.696;2024-03-07T11:14:51;35.70;;;13.77;;
30571;SDS011;17348;50.948;10.696;2024-03-07T11:17:54;27.07;;;13.07;;
30571;SDS011;17348;50.948;10.696;2024-03-07T11:20:58;29.53;;;13.60;;
30571;SDS011;17348;50.948;10.696;2024-03-07T11:24:01;28.07;;;12.97;;
30571;SDS011;17348;50.948;10.696;2024-03-07T11:27:06;28.30;;;12.33;;
30571;SDS011;17348;50.948;10.696;2024-03-07T11:30:11;29.50;;;13.23;;
30571;SDS011;17348;50.948;10.696;2024-03-07T11:33:14;28.87;;;13.30;;
30571;SDS011;17348;50.948;10.696;2024-03-07T11:36:41;28.07;;;12.60;;
30571;SDS011;17348;50.948;10.696;2024-03-07T11:39:45;33.30;;;13.03;;
30571;SDS011;17348;50.948;10.696;2024-03-07T11:42:48;21.73;;;9.87;;
30571;SDS011;17348;50.948;10.696;2024-03-07T11:45:51;24.27;;;11.73;;
30571;SDS011;17348;50.948;10.696;2024-03-07T11:48:53;30.40;;;12.67;;
30571;SDS011;17348;50.948;10.696;2024-03-07T11:52:01;23.00;;;11.13;;
30571;SDS011;17348;50.948;10.696;2024-03-07T11:55:05;27.40;;;12.47;;
30571;SDS011;17348;50.948;10.696;2024-03-07T11:58:14;32.83;;;13.13;;
30571;SDS011;17348;50.948;10.696;2024-03-07T12:01:17;27.17;;;12.60;;
30571;SDS011;17348;50.948;10.696;2024-03-07T12:04:20;25.60;;;10.83;;
30571;SDS011;17348;50.948;10.696;2024-03-07T12:07:25;24.47;;;11.00;;
30571;SDS011;17348;50.948;10.696;2024-03-07T12:10:28;31.83;;;10.80;;
30571;SDS011;17348;50.948;10.696;2024-03-07T12:13:30;22.53;;;10.67;;
30571;SDS011;17348;50.948;10.696;2024-03-07T12:16:33;24.07;;;11.13;;
30571;SDS011;17348;50.948;10.696;2024-03-07T12:19:35;20.93;;;10.03;;
30571;SDS011;17348;50.948;10.696;2024-03-07T12:22:40;25.00;;;11.57;;
30571;SDS011;17348;50.948;10.696;2024-03-07T12:25:46;24.90;;;14.17;;
30571;SDS011;17348;50.948;10.696;2024-03-07T12:28:49;31.23;;;14.30;;
30571;SDS011;17348;50.948;10.696;2024-03-07T12:31:53;32.53;;;15.00;;
30571;SDS011;17348;50.948;10.696;2024-03-07T12:34:56;30.50;;;16.67;;
30571;SDS011;17348;50.948;10.696;2024-03-07T12:37:59;31.73;;;16.10;;
30571;SDS011;17348;50.948;10.696;2024-03-07T12:41:04;37.87;;;15.70;;
30571;SDS011;17348;50.948;10.696;2024-03-07T12:44:07;30.17;;;14.43;;
30571;SDS011;17348;50.948;10.696;2024-03-07T12:47:13;27.63;;;13.93;;
30571;SDS011;17348;50.948;10.696;2024-03-07T12:50:17;27.63;;;13.87;;
30571;SDS011;17348;50.948;10.696;2024-03-07T12:53:22;38.33;;;15.73;;
30571;SDS011;17348;50.948;10.696;2024-03-07T12:56:26;30.57;;;15.50;;
30571;SDS011;17348;50.948;10.696;2024-03-07T12:59:28;28.10;;;13.83;;
30571;SDS011;17348;50.948;10.696;2024-03-07T13:02:30;23.83;;;12.43;;
30571;SDS011;17348;50.948;10.696;2024-03-07T13:05:33;31.13;;;14.90;;
30571;SDS011;17348;50.948;10.696;2024-03-07T13:08:36;26.33;;;14.03;;
30571;SDS011;17348;50.948;10.696;2024-03-07T13:11:40;33.83;;;14.97;;
30571;SDS011;17348;50.948;10.696;2024-03-07T13:14:47;32.47;;;13.50;;
30571;SDS011;17348;50.948;10.696;2024-03-07T13:17:49;30.17;;;12.97;;
30571;SDS011;17348;50.948;10.696;2024-03-07T13:20:54;25.47;;;13.60;;
30571;SDS011;17348;50.948;10.696;2024-03-07T13:23:58;25.00;;;13.20;;
30571;SDS011;17348;50.948;10.696;2024-03-07T13:27:01;24.33;;;12.90;;
30571;SDS011;17348;50.948;10.696;2024-03-07T13:30:04;35.20;;;14.67;;
30571;SDS011;17348;50.948;10.696;2024-03-07T13:33:08;32.30;;;11.30;;
30571;SDS011;17348;50.948;10.696;2024-03-07T13:36:11;25.00;;;12.63;;
30571;SDS011;17348;50.948;10.696;2024-03-07T13:39:17;26.53;;;13.50;;
30571;SDS011;17348;50.948;10.696;2024-03-07T13:42:19;21.73;;;11.43;;
30571;SDS011;17348;50.948;10.696;2024-03-07T13:45:23;28.20;;;13.30;;
30571;SDS011;17348;50.948;10.696;2024-03-07T13:48:27;24.27;;;11.43;;
30571;SDS011;17348;50.948;10.696;2024-03-07T13:51:29;27.60;;;13.37;;
30571;SDS011;17348;50.948;10.696;2024-03-07T13:54:33;24.40;;;12.57;;
30571;SDS011;17348;50.948;10.696;2024-03-07T13:57:35;47.13;;;13.60;;
30571;SDS011;17348;50.948;10.696;2024-03-07T14:00:46;26.75;;;12.60;;
30571;SDS011;17348;50.948;10.696;2024-03-07T14:04:01;19.67;;;11.00;;
30571;SDS011;17348;50.948;10.696;2024-03-07T14:07:30;23.37;;;11.23;;
30571;SDS011;17348;50.948;10.696;2024-03-07T14:10:54;37.47;;;14.07;;
30571;SDS011;17348;50.948;10.696;2024-03-07T14:14:20;28.73;;;12.37;;
30571;SDS011;17348;50.948;10.696;2024-03-07T14:21:47;23.00;;;12.33;;
30571;SDS011;17348;50.948;10.696;2024-03-07T14:25:07;30.47;;;13.40;;
30571;SDS011;17348;50.948;10.696;2024-03-07T14:28:34;22.57;;;12.57;;
30571;SDS011;17348;50.948;10.696;2024-03-07T14:31:53;28.03;;;11.83;;
30571;SDS011;17348;50.948;10.696;2024-03-07T14:34:57;24.73;;;11.47;;
30571;SDS011;17348;50.948;10.696;2024-03-07T14:38:06;25.03;;;12.40;;
30571;SDS011;17348;50.948;10.696;2024-03-07T14:41:39;27.03;;;13.23;;
30571;SDS011;17348;50.948;10.696;2024-03-07T14:44:47;26.65;;;12.60;;
30571;SDS011;17348;50.948;10.696;2024-03-07T14:47:50;25.60;;;12.33;;
30571;SDS011;17348;50.948;10.696;2024-03-07T14:50:53;24.83;;;11.37;;
30571;SDS011;17348;50.948;10.696;2024-03-07T14:53:56;25.00;;;12.10;;
30571;SDS011;17348;50.948;10.696;2024-03-07T14:57:00;22.97;;;12.03;;
30571;SDS011;17348;50.948;10.696;2024-03-07T15:00:07;23.87;;;12.33;;
30571;SDS011;17348;50.948;10.696;2024-03-07T15:03:18;28.90;;;12.60;;
30571;SDS011;17348;50.948;10.696;2024-03-07T15:06:20;24.33;;;12.30;;
30571;SDS011;17348;50.948;10.696;2024-03-07T15:09:23;32.20;;;15.13;;
30571;SDS011;17348;50.948;10.696;2024-03-07T15:12:25;31.77;;;14.70;;
30571;SDS011;17348;50.948;10.696;2024-03-07T15:15:29;31.50;;;16.30;;
30571;SDS011;17348;50.948;10.696;2024-03-07T15:18:32;28.47;;;13.33;;
30571;SDS011;17348;50.948;10.696;2024-03-07T15:21:34;31.37;;;14.37;;
30571;SDS011;17348;50.948;10.696;2024-03-07T15:24:38;26.23;;;13.90;;
30571;SDS011;17348;50.948;10.696;2024-03-07T15:27:41;27.33;;;13.33;;
30571;SDS011;17348;50.948;10.696;2024-03-07T15:30:44;26.90;;;12.10;;
30571;SDS011;17348;50.948;10.696;2024-03-07T15:33:48;32.33;;;13.17;;
30571;SDS011;17348;50.948;10.696;2024-03-07T15:36:58;28.77;;;13.83;;
30571;SDS011;17348;50.948;10.696;2024-03-07T15:40:04;32.20;;;14.05;;
30571;SDS011;17348;50.948;10.696;2024-03-07T15:43:12;32.73;;;13.80;;
30571;SDS011;17348;50.948;10.696;2024-03-07T15:46:16;26.40;;;12.87;;
30571;SDS011;17348;50.948;10.696;2024-03-07T15:49:18;33.73;;;14.93;;
30571;SDS011;17348;50.948;10.696;2024-03-07T15:52:21;28.13;;;13.07;;
30571;SDS011;17348;50.948;10.696;2024-03-07T15:55:24;29.97;;;14.00;;
30571;SDS011;17348;50.948;10.696;2024-03-07T15:58:28;28.13;;;14.00;;
30571;SDS011;17348;50.948;10.696;2024-03-07T16:01:31;24.40;;;13.13;;
30571;SDS011;17348;50.948;10.696;2024-03-07T16:04:34;32.10;;;15.30;;
30571;SDS011;17348;50.948;10.696;2024-03-07T16:07:36;32.80;;;16.53;;
30571;SDS011;17348;50.948;10.696;2024-03-07T16:10:39;36.70;;;15.83;;
30571;SDS011;17348;50.948;10.696;2024-03-07T16:13:42;35.50;;;18.63;;
30571;SDS011;17348;50.948;10.696;2024-03-07T16:16:47;33.90;;;16.60;;
30571;SDS011;17348;50.948;10.696;2024-03-07T16:19:49;28.47;;;14.43;;
30571;SDS011;17348;50.948;10.696;2024-03-07T16:22:52;24.80;;;12.40;;
30571;SDS011;17348;50.948;10.696;2024-03-07T16:25:56;24.30;;;12.93;;
30571;SDS011;17348;50.948;10.696;2024-03-07T16:28:58;35.90;;;15.20;;
30571;SDS011;17348;50.948;10.696;2024-03-07T16:32:02;33.60;;;12.83;;
30571;SDS011;17348;50.948;10.696;2024-03-07T16:35:06;30.27;;;14.13;;
30571;SDS011;17348;50.948;10.696;2024-03-07T16:38:10;29.33;;;13.43;;
30571;SDS011;17348;50.948;10.696;2024-03-07T16:41:15;33.70;;;14.93;;
30571;SDS011;17348;50.948;10.696;2024-03-07T16:44:22;38.43;;;15.30;;
30571;SDS011;17348;50.948;10.696;2024-03-07T16:47:27;27.50;;;14.13;;
30571;SDS011;17348;50.948;10.696;2024-03-07T16:50:30;29.57;;;13.20;;
30571;SDS011;17348;50.948;10.696;2024-03-07T16:53:33;32.93;;;14.33;;
30571;SDS011;17348;50.948;10.696;2024-03-07T16:56:36;32.47;;;16.23;;
30571;SDS011;17348;50.948;10.696;2024-03-07T16:59:41;34.17;;;16.20;;
30571;SDS011;17348;50.948;10.696;2024-03-07T17:02:44;31.40;;;15.27;;
30571;SDS011;17348;50.948;10.696;2024-03-07T17:05:47;31.63;;;14.70;;
30571;SDS011;17348;50.948;10.696;2024-03-07T17:08:50;32.83;;;15.77;;
30571;SDS011;17348;50.948;10.696;2024-03-07T17:11:54;35.63;;;14.17;;
30571;SDS011;17348;50.948;10.696;2024-03-07T17:14:58;31.33;;;14.33;;
30571;SDS011;17348;50.948;10.696;2024-03-07T17:18:01;36.77;;;13.30;;
30571;SDS011;17348;50.948;10.696;2024-03-07T17:21:04;30.07;;;13.17;;
30571;SDS011;17348;50.948;10.696;2024-03-07T17:24:08;32.13;;;14.00;;
30571;SDS011;17348;50.948;10.696;2024-03-07T17:27:13;25.67;;;12.80;;
30571;SDS011;17348;50.948;10.696;2024-03-07T17:30:15;27.33;;;12.90;;
30571;SDS011;17348;50.948;10.696;2024-03-07T17:33:20;29.47;;;13.50;;
30571;SDS011;17348;50.948;10.696;2024-03-07T17:36:25;28.33;;;13.47;;
30571;SDS011;17348;50.948;10.696;2024-03-07T17:39:32;27.80;;;12.93;;
30571;SDS011;17348;50.948;10.696;2024-03-07T17:42:34;25.93;;;12.20;;
30571;SDS011;17348;50.948;10.696;2024-03-07T17:45:37;27.43;;;13.20;;